sensor_id;sensor_type;location;lat;lon;timestamp;pressure;altitude;pressure_sealevel;temperature;humidity
57894;BME280;43710;47.460;19.034;2022-08-19T04:01:58;99960.91;;;26.43;51.47
57894;BME280;43710;47.460;19.034;2022-08-19T04:05:01;99960.91;;;26.43;51.47
57894;BME280;43710;47.460;19.034;2022-08-19T04:08:04;99955.56;;;25.93;52.11
57894;BME280;43710;47.460;19.034;2022-08-19T04:11:17;99966.53;;;25.93;56.19
57894;BME280;43710;47.460;19.034;2022-08-19T04:14:22;99976.31;;;26.01;52.04
57894;BME280;43710;47.460;19.034;2022-08-19T04:17:26;99975.12;;;26.09;51.84
57894;BME280;43710;47.460;19.034;2022-08-19T04:20:28;99975.91;;;25.99;51.98
57894;BME280;43710;47.460;19.034;2022-08-19T04:23:31;99989.66;;;26.13;51.88
57894;BME280;43710;47.460;19.034;2022-08-19T04:26:35;99985.69;;;26.21;50.98
57894;BME280;43710;47.460;19.034;2022-08-19T04:29:38;99970.03;;;26.11;51.40
57894;BME280;43710;47.460;19.034;2022-08-19T04:32:42;99973.16;;;26.17;51.95
57894;BME280;43710;47.460;19.034;2022-08-19T04:35:47;99990.41;;;26.21;50.89
57894;BME280;43710;47.460;19.034;2022-08-19T04:38:54;99986.47;;;26.25;50.70
57894;BME280;43710;47.460;19.034;2022-08-19T04:41:56;99996.66;;;26.29;50.76
57894;BME280;43710;47.460;19.034;2022-08-19T04:45:17;99996.28;;;26.30;51.29
57894;BME280;43710;47.460;19.034;2022-08-19T04:48:24;99999.03;;;26.30;50.71
57894;BME280;43710;47.460;19.034;2022-08-19T04:51:29;99998.63;;;26.32;50.84
57894;BME280;43710;47.460;19.034;2022-08-19T04:54:33;99989.22;;;26.29;51.02
57894;BME280;43710;47.460;19.034;2022-08-19T04:57:40;99987.63;;;26.35;51.27
57894;BME280;43710;47.460;19.034;2022-08-19T05:00:42;99987.25;;;26.30;51.29
57894;BME280;43710;47.460;19.034;2022-08-19T05:03:45;99991.94;;;26.43;50.70
57894;BME280;43710;47.460;19.034;2022-08-19T05:06:48;99996.25;;;26.37;50.96
57894;BME280;43710;47.460;19.034;2022-08-19T05:09:51;99999.78;;;26.38;50.61
57894;BME280;43710;47.460;19.034;2022-08-19T05:13:00;100002.13;;;26.46;50.20
57894;BME280;43710;47.460;19.034;2022-08-19T05:16:02;99997.41;;;26.47;50.99
57894;BME280;43710;47.460;19.034;2022-08-19T05:19:05;100006.09;;;26.49;50.64
57894;BME280;43710;47.460;19.034;2022-08-19T05:22:25;100000.97;;;26.51;50.81
57894;BME280;43710;47.460;19.034;2022-08-19T05:25:39;100003.28;;;26.60;50.90
57894;BME280;43710;47.460;19.034;2022-08-19T05:28:42;99999.75;;;26.66;49.75
57894;BME280;43710;47.460;19.034;2022-08-19T05:31:45;99997.75;;;26.70;50.00
57894;BME280;43710;47.460;19.034;2022-08-19T05:34:47;99996.91;;;26.81;49.80
57894;BME280;43710;47.460;19.034;2022-08-19T05:37:50;99994.09;;;26.95;49.66
57894;BME280;43710;47.460;19.034;2022-08-19T05:40:59;99997.22;;;26.97;49.52
57894;BME280;43710;47.460;19.034;2022-08-19T05:44:04;100001.19;;;26.96;49.63
57894;BME280;43710;47.460;19.034;2022-08-19T05:47:08;100001.53;;;27.02;48.99
57894;BME280;43710;47.460;19.034;2022-08-19T05:50:10;99999.56;;;27.06;49.18
57894;BME280;43710;47.460;19.034;2022-08-19T05:53:13;99999.13;;;27.11;49.85
57894;BME280;43710;47.460;19.034;2022-08-19T05:56:18;100004.25;;;27.16;48.58
57894;BME280;43710;47.460;19.034;2022-08-19T05:59:21;100000.66;;;27.23;49.04
57894;BME280;43710;47.460;19.034;2022-08-19T06:02:27;100001.81;;;27.29;48.74
57894;BME280;43710;47.460;19.034;2022-08-19T06:05:30;100007.69;;;27.27;47.62
57894;BME280;43710;47.460;19.034;2022-08-19T06:08:47;100006.16;;;27.26;48.50
57894;BME280;43710;47.460;19.034;2022-08-19T06:11:54;99999.84;;;27.29;48.10
57894;BME280;43710;47.460;19.034;2022-08-19T06:14:57;99993.13;;;27.34;47.88
57894;BME280;43710;47.460;19.034;2022-08-19T06:18:02;99994.66;;;27.38;49.01
57894;BME280;43710;47.460;19.034;2022-08-19T06:21:05;100002.44;;;27.51;48.22
57894;BME280;43710;47.460;19.034;2022-08-19T06:24:09;99999.63;;;27.58;48.15
57894;BME280;43710;47.460;19.034;2022-08-19T06:27:12;99999.63;;;27.58;47.84
57894;BME280;43710;47.460;19.034;2022-08-19T06:30:14;99994.84;;;27.69;46.93
57894;BME280;43710;47.460;19.034;2022-08-19T06:33:17;99981.88;;;27.66;47.39
57894;BME280;43710;47.460;19.034;2022-08-19T06:36:25;99977.47;;;27.79;47.38
57894;BME280;43710;47.460;19.034;2022-08-19T06:39:34;99974.59;;;27.90;46.65
57894;BME280;43710;47.460;19.034;2022-08-19T06:42:37;99984.41;;;27.91;46.28
57894;BME280;43710;47.460;19.034;2022-08-19T06:45:56;99981.53;;;28.05;47.01
57894;BME280;43710;47.460;19.034;2022-08-19T06:49:00;99985.03;;;28.09;46.13
57894;BME280;43710;47.460;19.034;2022-08-19T06:52:03;99973.59;;;28.15;46.02
57894;BME280;43710;47.460;19.034;2022-08-19T06:55:06;99966.44;;;28.17;46.13
57894;BME280;43710;47.460;19.034;2022-08-19T06:58:08;99970.37;;;28.20;45.96
57894;BME280;43710;47.460;19.034;2022-08-19T07:01:11;99978.19;;;28.25;45.60
57894;BME280;43710;47.460;19.034;2022-08-19T07:04:15;99985.91;;;28.41;45.21
57894;BME280;43710;47.460;19.034;2022-08-19T07:07:20;99994.19;;;28.41;45.46
57894;BME280;43710;47.460;19.034;2022-08-19T07:10:24;100000.84;;;28.43;45.40
57894;BME280;43710;47.460;19.034;2022-08-19T07:13:27;100001.97;;;28.49;45.04
57894;BME280;43710;47.460;19.034;2022-08-19T07:16:29;100014.47;;;28.61;44.19
57894;BME280;43710;47.460;19.034;2022-08-19T07:19:32;100011.69;;;28.61;44.20
57894;BME280;43710;47.460;19.034;2022-08-19T07:22:35;100012.38;;;28.69;43.94
57894;BME280;43710;47.460;19.034;2022-08-19T07:25:38;100004.78;;;28.76;43.57
57894;BME280;43710;47.460;19.034;2022-08-19T07:28:42;100011.84;;;28.81;43.56
57894;BME280;43710;47.460;19.034;2022-08-19T07:31:53;100009.34;;;28.90;43.43
57894;BME280;43710;47.460;19.034;2022-08-19T07:34:58;100002.16;;;29.00;42.84
57894;BME280;43710;47.460;19.034;2022-08-19T07:38:02;100006.06;;;29.02;43.47
57894;BME280;43710;47.460;19.034;2022-08-19T07:41:05;100005.25;;;29.06;43.20
57894;BME280;43710;47.460;19.034;2022-08-19T07:44:08;100005.56;;;29.11;43.75
57894;BME280;43710;47.460;19.034;2022-08-19T07:47:11;99999.28;;;29.11;44.61
57894;BME280;43710;47.460;19.034;2022-08-19T07:50:35;99989.62;;;29.22;43.41
57894;BME280;43710;47.460;19.034;2022-08-19T07:53:37;99997.12;;;29.22;43.11
57894;BME280;43710;47.460;19.034;2022-08-19T07:56:41;99994.69;;;29.27;43.07
57894;BME280;43710;47.460;19.034;2022-08-19T07:59:43;99998.44;;;29.41;42.51
57894;BME280;43710;47.460;19.034;2022-08-19T08:02:45;100001.06;;;29.48;42.32
57894;BME280;43710;47.460;19.034;2022-08-19T08:05:48;100002.56;;;29.53;42.35
57894;BME280;43710;47.460;19.034;2022-08-19T08:09:09;100002.87;;;29.58;41.12
57894;BME280;43710;47.460;19.034;2022-08-19T08:12:21;100000.09;;;29.62;41.86
57894;BME280;43710;47.460;19.034;2022-08-19T08:15:36;99999.97;;;29.69;41.81
57894;BME280;43710;47.460;19.034;2022-08-19T08:18:44;100007.47;;;29.68;41.75
57894;BME280;43710;47.460;19.034;2022-08-19T08:21:55;99999.56;;;29.70;41.50
57894;BME280;43710;47.460;19.034;2022-08-19T08:25:02;100010.56;;;29.74;41.59
57894;BME280;43710;47.460;19.034;2022-08-19T08:28:07;100002.50;;;29.83;39.83
57894;BME280;43710;47.460;19.034;2022-08-19T08:31:19;99996.06;;;29.90;39.27
57894;BME280;43710;47.460;19.034;2022-08-19T08:34:21;100004.66;;;29.95;40.15
57894;BME280;43710;47.460;19.034;2022-08-19T08:37:24;99997.38;;;30.05;39.30
57894;BME280;43710;47.460;19.034;2022-08-19T08:43:35;100002.66;;;30.19;38.63
57894;BME280;43710;47.460;19.034;2022-08-19T08:46:46;99984.75;;;30.28;38.43
57894;BME280;43710;47.460;19.034;2022-08-19T08:49:58;99983.13;;;30.50;37.96
57894;BME280;43710;47.460;19.034;2022-08-19T08:53:03;99974.91;;;30.47;38.36
57894;BME280;43710;47.460;19.034;2022-08-19T08:56:09;99964.63;;;30.47;38.82
57894;BME280;43710;47.460;19.034;2022-08-19T08:59:26;99966.72;;;30.39;37.34
57894;BME280;43710;47.460;19.034;2022-08-19T09:02:30;99969.00;;;30.45;37.99
57894;BME280;43710;47.460;19.034;2022-08-19T09:09:04;99967.59;;;30.56;38.15
57894;BME280;43710;47.460;19.034;2022-08-19T09:12:33;99964.75;;;30.60;38.45
57894;BME280;43710;47.460;19.034;2022-08-19T09:15:43;99966.22;;;30.64;38.09
57894;BME280;43710;47.460;19.034;2022-08-19T09:18:51;99972.81;;;30.71;37.81
57894;BME280;43710;47.460;19.034;2022-08-19T09:21:56;99968.91;;;30.88;37.91
57894;BME280;43710;47.460;19.034;2022-08-19T09:24:58;99962.16;;;30.89;38.12
57894;BME280;43710;47.460;19.034;2022-08-19T09:28:01;99955.84;;;30.88;37.96
57894;BME280;43710;47.460;19.034;2022-08-19T09:31:26;99956.22;;;30.91;37.96
57894;BME280;43710;47.460;19.034;2022-08-19T09:34:28;99939.44;;;30.98;37.48
57894;BME280;43710;47.460;19.034;2022-08-19T09:37:38;99947.94;;;31.07;37.57
57894;BME280;43710;47.460;19.034;2022-08-19T09:40:41;99941.19;;;31.08;36.69
57894;BME280;43710;47.460;19.034;2022-08-19T09:43:45;99940.69;;;31.13;36.65
57894;BME280;43710;47.460;19.034;2022-08-19T09:46:49;99937.75;;;31.20;37.12
57894;BME280;43710;47.460;19.034;2022-08-19T09:49:52;99933.47;;;31.16;36.31
57894;BME280;43710;47.460;19.034;2022-08-19T09:52:54;99937.12;;;31.29;36.37
57894;BME280;43710;47.460;19.034;2022-08-19T09:55:58;99927.19;;;31.31;35.90
57894;BME280;43710;47.460;19.034;2022-08-19T09:59:05;99910.50;;;31.35;36.67
57894;BME280;43710;47.460;19.034;2022-08-19T10:02:07;99913.59;;;31.53;36.12
57894;BME280;43710;47.460;19.034;2022-08-19T10:05:12;99907.44;;;31.62;35.77
57894;BME280;43710;47.460;19.034;2022-08-19T10:08:35;99911.00;;;31.63;35.87
57894;BME280;43710;47.460;19.034;2022-08-19T10:11:43;99911.69;;;31.67;35.21
57894;BME280;43710;47.460;19.034;2022-08-19T10:14:55;99913.69;;;31.66;35.22
57894;BME280;43710;47.460;19.034;2022-08-19T10:17:58;99917.22;;;31.67;35.86
57894;BME280;43710;47.460;19.034;2022-08-19T10:21:10;99907.69;;;31.68;35.17
57894;BME280;43710;47.460;19.034;2022-08-19T10:24:13;99909.94;;;31.73;35.62
57894;BME280;43710;47.460;19.034;2022-08-19T10:27:19;99902.41;;;31.73;34.92
57894;BME280;43710;47.460;19.034;2022-08-19T10:30:21;99899.00;;;31.82;35.01
57894;BME280;43710;47.460;19.034;2022-08-19T10:33:25;99899.28;;;31.88;34.83
57894;BME280;43710;47.460;19.034;2022-08-19T10:36:49;99909.84;;;31.93;34.95
57894;BME280;43710;47.460;19.034;2022-08-19T10:39:58;99900.75;;;31.92;34.38
57894;BME280;43710;47.460;19.034;2022-08-19T10:43:00;99898.53;;;32.00;34.44
57894;BME280;43710;47.460;19.034;2022-08-19T10:46:02;99893.56;;;32.08;33.78
57894;BME280;43710;47.460;19.034;2022-08-19T10:49:11;99906.34;;;32.18;33.84
57894;BME280;43710;47.460;19.034;2022-08-19T10:52:13;99894.84;;;32.19;34.06
57894;BME280;43710;47.460;19.034;2022-08-19T10:55:34;99898.91;;;32.15;34.00
57894;BME280;43710;47.460;19.034;2022-08-19T10:58:55;99897.72;;;32.16;33.97
57894;BME280;43710;47.460;19.034;2022-08-19T11:02:00;99892.19;;;32.28;33.26
57894;BME280;43710;47.460;19.034;2022-08-19T11:05:03;99893.87;;;32.39;33.57
57894;BME280;43710;47.460;19.034;2022-08-19T11:08:14;99888.66;;;32.41;33.30
57894;BME280;43710;47.460;19.034;2022-08-19T11:11:25;99891.22;;;32.48;33.47
57894;BME280;43710;47.460;19.034;2022-08-19T11:14:28;99880.84;;;32.52;32.67
57894;BME280;43710;47.460;19.034;2022-08-19T11:17:34;99879.13;;;32.42;32.71
57894;BME280;43710;47.460;19.034;2022-08-19T11:20:38;99884.59;;;32.58;32.61
57894;BME280;43710;47.460;19.034;2022-08-19T11:23:40;99885.28;;;32.62;32.53
57894;BME280;43710;47.460;19.034;2022-08-19T11:26:44;99898.12;;;32.56;33.76
57894;BME280;43710;47.460;19.034;2022-08-19T11:29:46;99886.94;;;32.60;32.11
57894;BME280;43710;47.460;19.034;2022-08-19T11:32:48;99884.50;;;32.62;32.28
57894;BME280;43710;47.460;19.034;2022-08-19T11:35:51;99874.06;;;32.66;31.82
57894;BME280;43710;47.460;19.034;2022-08-19T11:38:54;99880.03;;;32.77;31.88
57894;BME280;43710;47.460;19.034;2022-08-19T11:42:00;99881.03;;;32.83;31.92
57894;BME280;43710;47.460;19.034;2022-08-19T11:45:04;99878.03;;;32.90;31.60
57894;BME280;43710;47.460;19.034;2022-08-19T11:48:06;99880.28;;;32.95;31.62
57894;BME280;43710;47.460;19.034;2022-08-19T11:51:11;99870.81;;;32.93;30.94
57894;BME280;43710;47.460;19.034;2022-08-19T11:54:15;99873.16;;;32.94;32.22
57894;BME280;43710;47.460;19.034;2022-08-19T11:57:18;99862.81;;;33.08;31.32
57894;BME280;43710;47.460;19.034;2022-08-19T12:00:21;99857.38;;;33.04;30.82
57894;BME280;43710;47.460;19.034;2022-08-19T12:03:24;99857.06;;;33.15;30.79
57894;BME280;43710;47.460;19.034;2022-08-19T12:06:31;99859.84;;;33.15;31.09
57894;BME280;43710;47.460;19.034;2022-08-19T12:09:33;99862.38;;;33.22;30.79
57894;BME280;43710;47.460;19.034;2022-08-19T12:12:36;99857.63;;;33.10;30.53
57894;BME280;43710;47.460;19.034;2022-08-19T12:15:42;99862.28;;;33.13;31.16
57894;BME280;43710;47.460;19.034;2022-08-19T12:18:45;99864.72;;;33.11;30.42
57894;BME280;43710;47.460;19.034;2022-08-19T12:21:51;99862.34;;;33.35;30.65
57894;BME280;43710;47.460;19.034;2022-08-19T12:24:54;99864.00;;;33.32;30.49
57894;BME280;43710;47.460;19.034;2022-08-19T12:27:57;99869.25;;;33.17;31.02
57894;BME280;43710;47.460;19.034;2022-08-19T12:31:00;99873.03;;;33.24;30.33
57894;BME280;43710;47.460;19.034;2022-08-19T12:34:02;99864.41;;;33.43;30.34
57894;BME280;43710;47.460;19.034;2022-08-19T12:37:05;99865.34;;;33.28;30.53
57894;BME280;43710;47.460;19.034;2022-08-19T12:40:08;99852.00;;;33.35;30.68
57894;BME280;43710;47.460;19.034;2022-08-19T12:43:11;99848.63;;;33.40;30.91
57894;BME280;43710;47.460;19.034;2022-08-19T12:46:13;99843.19;;;33.37;30.39
57894;BME280;43710;47.460;19.034;2022-08-19T12:49:18;99842.09;;;33.34;30.82
57894;BME280;43710;47.460;19.034;2022-08-19T12:52:40;99836.34;;;33.29;30.48
57894;BME280;43710;47.460;19.034;2022-08-19T12:55:45;99826.44;;;33.28;30.64
57894;BME280;43710;47.460;19.034;2022-08-19T12:58:48;99822.78;;;33.31;30.41
57894;BME280;43710;47.460;19.034;2022-08-19T13:01:53;99820.47;;;33.29;29.73
57894;BME280;43710;47.460;19.034;2022-08-19T13:04:56;99828.66;;;33.33;30.18
57894;BME280;43710;47.460;19.034;2022-08-19T13:07:59;99829.66;;;33.39;30.05
57894;BME280;43710;47.460;19.034;2022-08-19T13:11:10;99821.06;;;33.46;30.47
57894;BME280;43710;47.460;19.034;2022-08-19T13:14:13;99822.19;;;33.49;30.41
57894;BME280;43710;47.460;19.034;2022-08-19T13:17:16;99821.94;;;33.56;29.63
57894;BME280;43710;47.460;19.034;2022-08-19T13:20:19;99816.91;;;33.63;29.74
57894;BME280;43710;47.460;19.034;2022-08-19T13:23:22;99819.09;;;33.68;29.43
57894;BME280;43710;47.460;19.034;2022-08-19T13:26:24;99807.09;;;33.72;29.41
57894;BME280;43710;47.460;19.034;2022-08-19T13:29:26;99807.53;;;33.92;29.13
57894;BME280;43710;47.460;19.034;2022-08-19T13:32:47;99810.50;;;33.76;29.22
57894;BME280;43710;47.460;19.034;2022-08-19T13:36:08;99810.00;;;33.68;29.74
57894;BME280;43710;47.460;19.034;2022-08-19T13:39:12;99806.69;;;33.60;29.51
57894;BME280;43710;47.460;19.034;2022-08-19T13:42:14;99802.28;;;33.50;29.76
57894;BME280;43710;47.460;19.034;2022-08-19T13:45:19;99805.63;;;33.45;30.18
57894;BME280;43710;47.460;19.034;2022-08-19T13:48:22;99810.50;;;33.54;30.16
57894;BME280;43710;47.460;19.034;2022-08-19T13:51:25;99806.69;;;33.48;30.41
57894;BME280;43710;47.460;19.034;2022-08-19T13:54:27;99795.06;;;33.53;31.39
57894;BME280;43710;47.460;19.034;2022-08-19T13:57:30;99805.22;;;33.68;32.31
57894;BME280;43710;47.460;19.034;2022-08-19T14:00:38;99808.75;;;33.69;33.60
57894;BME280;43710;47.460;19.034;2022-08-19T14:03:40;99830.75;;;33.41;34.37
57894;BME280;43710;47.460;19.034;2022-08-19T14:06:42;99866.84;;;33.07;35.26
57894;BME280;43710;47.460;19.034;2022-08-19T14:09:45;99824.53;;;32.77;35.83
57894;BME280;43710;47.460;19.034;2022-08-19T14:12:53;99835.97;;;32.54;36.89
57894;BME280;43710;47.460;19.034;2022-08-19T14:15:57;99830.28;;;32.32;36.71
57894;BME280;43710;47.460;19.034;2022-08-19T14:19:00;99820.84;;;32.16;36.64
57894;BME280;43710;47.460;19.034;2022-08-19T14:22:03;99837.59;;;32.13;36.79
57894;BME280;43710;47.460;19.034;2022-08-19T14:25:09;99819.28;;;32.02;36.59
57894;BME280;43710;47.460;19.034;2022-08-19T14:28:12;99811.28;;;32.04;36.70
57894;BME280;43710;47.460;19.034;2022-08-19T14:31:15;99808.59;;;32.01;36.80
57894;BME280;43710;47.460;19.034;2022-08-19T14:34:20;99817.47;;;31.96;36.78
57894;BME280;43710;47.460;19.034;2022-08-19T14:37:23;99801.03;;;31.89;37.19
